Dixmont, Maine
Current Conditions -  °F | °C
As of 2:53 PM on Monday 22 Dec 2014 (Local Time) from KBGR Reporting Station
Broken Clouds Broken Clouds  
Wind Chill: 31°   Ceiling: 5000
Heat Index: 35°   Visibility: 10mi
Dew Point: 27°   Wind: 5mph
Humidity: 72%   Direction: 50°NE
Pressure: 30.41"   Gusts: NA
Location:  44.68°N, 69.16°W
Report Text: KBGR 221953Z 05004KT 10SM BKN050 02/M03 A3041 RMK AO2 SLP299 T00171028
Loading
Personal Weather Stations






























Interactive Weather Map New forecast layout! Learn more

10-Day Weather Forecast

Advertisements
Track Severe Weather on mobile